sensor_id;sensor_type;location;lat;lon;timestamp;P1;durP1;ratioP1;P2;durP2;ratioP2
64208;SDS011;50527;52.414;13.226;2023-07-22T00:02:21;2.28;;;1.08;;
64208;SDS011;50527;52.414;13.226;2023-07-22T00:04:48;1.45;;;1.00;;
64208;SDS011;50527;52.414;13.226;2023-07-22T00:07:13;1.75;;;1.02;;
64208;SDS011;50527;52.414;13.226;2023-07-22T00:09:39;2.35;;;0.98;;
64208;SDS011;50527;52.414;13.226;2023-07-22T00:12:06;1.83;;;1.05;;
64208;SDS011;50527;52.414;13.226;2023-07-22T00:14:32;1.85;;;1.10;;
64208;SDS011;50527;52.414;13.226;2023-07-22T00:16:58;2.70;;;0.98;;
64208;SDS011;50527;52.414;13.226;2023-07-22T00:19:23;11.38;;;1.13;;
64208;SDS011;50527;52.414;13.226;2023-07-22T00:21:49;1.70;;;1.00;;
64208;SDS011;50527;52.414;13.226;2023-07-22T00:24:14;3.75;;;1.00;;
64208;SDS011;50527;52.414;13.226;2023-07-22T00:26:40;1.20;;;0.85;;
64208;SDS011;50527;52.414;13.226;2023-07-22T00:29:06;1.90;;;1.00;;
64208;SDS011;50527;52.414;13.226;2023-07-22T00:31:33;3.35;;;1.10;;
64208;SDS011;50527;52.414;13.226;2023-07-22T00:34:01;1.67;;;1.10;;
64208;SDS011;50527;52.414;13.226;2023-07-22T00:36:27;1.77;;;0.90;;
64208;SDS011;50527;52.414;13.226;2023-07-22T00:38:54;2.75;;;1.05;;
64208;SDS011;50527;52.414;13.226;2023-07-22T00:41:19;2.50;;;0.82;;
64208;SDS011;50527;52.414;13.226;2023-07-22T00:43:45;2.35;;;1.15;;
64208;SDS011;50527;52.414;13.226;2023-07-22T00:46:10;2.05;;;1.10;;
64208;SDS011;50527;52.414;13.226;2023-07-22T00:48:36;2.80;;;0.95;;
64208;SDS011;50527;52.414;13.226;2023-07-22T00:51:03;4.38;;;0.93;;
64208;SDS011;50527;52.414;13.226;2023-07-22T00:53:28;1.75;;;1.08;;
64208;SDS011;50527;52.414;13.226;2023-07-22T00:55:54;2.10;;;1.20;;
64208;SDS011;50527;52.414;13.226;2023-07-22T00:58:20;3.72;;;1.20;;
64208;SDS011;50527;52.414;13.226;2023-07-22T01:00:45;3.10;;;1.33;;
64208;SDS011;50527;52.414;13.226;2023-07-22T01:03:11;4.55;;;1.00;;
64208;SDS011;50527;52.414;13.226;2023-07-22T01:05:38;2.08;;;1.13;;
64208;SDS011;50527;52.414;13.226;2023-07-22T01:08:04;1.55;;;1.00;;
64208;SDS011;50527;52.414;13.226;2023-07-22T01:10:31;2.55;;;1.00;;
64208;SDS011;50527;52.414;13.226;2023-07-22T01:12:56;3.20;;;1.00;;
64208;SDS011;50527;52.414;13.226;2023-07-22T01:15:22;2.00;;;1.10;;
64208;SDS011;50527;52.414;13.226;2023-07-22T01:17:49;4.40;;;1.30;;
64208;SDS011;50527;52.414;13.226;2023-07-22T01:20:15;3.35;;;1.20;;
64208;SDS011;50527;52.414;13.226;2023-07-22T01:22:41;6.00;;;1.15;;
64208;SDS011;50527;52.414;13.226;2023-07-22T01:25:14;3.83;;;1.30;;
64208;SDS011;50527;52.414;13.226;2023-07-22T01:27:40;3.88;;;1.48;;
64208;SDS011;50527;52.414;13.226;2023-07-22T01:30:05;4.97;;;1.50;;
64208;SDS011;50527;52.414;13.226;2023-07-22T01:32:34;2.05;;;1.10;;
64208;SDS011;50527;52.414;13.226;2023-07-22T01:35:00;2.75;;;1.08;;
64208;SDS011;50527;52.414;13.226;2023-07-22T01:37:25;2.05;;;1.15;;
64208;SDS011;50527;52.414;13.226;2023-07-22T01:39:51;1.75;;;1.13;;
64208;SDS011;50527;52.414;13.226;2023-07-22T01:45:34;4.30;;;1.38;;
64208;SDS011;50527;52.414;13.226;2023-07-22T01:48:00;3.88;;;0.98;;
64208;SDS011;50527;52.414;13.226;2023-07-22T01:50:25;4.95;;;1.40;;
64208;SDS011;50527;52.414;13.226;2023-07-22T01:52:51;3.13;;;1.17;;
64208;SDS011;50527;52.414;13.226;2023-07-22T01:55:17;1.95;;;1.27;;
64208;SDS011;50527;52.414;13.226;2023-07-22T01:57:43;3.90;;;1.23;;
64208;SDS011;50527;52.414;13.226;2023-07-22T02:00:09;3.10;;;1.40;;
64208;SDS011;50527;52.414;13.226;2023-07-22T02:02:36;3.38;;;1.42;;
64208;SDS011;50527;52.414;13.226;2023-07-22T02:05:01;2.22;;;1.20;;
64208;SDS011;50527;52.414;13.226;2023-07-22T02:07:27;2.58;;;1.40;;
64208;SDS011;50527;52.414;13.226;2023-07-22T02:09:53;2.20;;;1.38;;
64208;SDS011;50527;52.414;13.226;2023-07-22T02:12:19;2.20;;;1.40;;
64208;SDS011;50527;52.414;13.226;2023-07-22T02:14:45;2.70;;;1.30;;
64208;SDS011;50527;52.414;13.226;2023-07-22T02:17:11;1.75;;;1.13;;
64208;SDS011;50527;52.414;13.226;2023-07-22T02:19:36;4.88;;;1.15;;
64208;SDS011;50527;52.414;13.226;2023-07-22T02:22:02;2.55;;;1.00;;
64208;SDS011;50527;52.414;13.226;2023-07-22T02:24:29;3.15;;;1.20;;
64208;SDS011;50527;52.414;13.226;2023-07-22T02:26:54;2.40;;;1.30;;
64208;SDS011;50527;52.414;13.226;2023-07-22T02:29:20;5.18;;;1.20;;
64208;SDS011;50527;52.414;13.226;2023-07-22T02:31:45;2.67;;;1.10;;
64208;SDS011;50527;52.414;13.226;2023-07-22T02:34:11;6.35;;;1.13;;
64208;SDS011;50527;52.414;13.226;2023-07-22T02:36:37;3.30;;;1.10;;
64208;SDS011;50527;52.414;13.226;2023-07-22T02:39:02;2.47;;;1.23;;
64208;SDS011;50527;52.414;13.226;2023-07-22T02:41:28;3.72;;;1.10;;
64208;SDS011;50527;52.414;13.226;2023-07-22T02:43:54;1.13;;;0.80;;
64208;SDS011;50527;52.414;13.226;2023-07-22T02:46:19;4.43;;;1.25;;
64208;SDS011;50527;52.414;13.226;2023-07-22T02:48:45;3.08;;;1.17;;
64208;SDS011;50527;52.414;13.226;2023-07-22T02:51:10;2.80;;;1.08;;
64208;SDS011;50527;52.414;13.226;2023-07-22T02:53:36;5.65;;;1.00;;
64208;SDS011;50527;52.414;13.226;2023-07-22T02:56:02;2.65;;;0.90;;
64208;SDS011;50527;52.414;13.226;2023-07-22T02:58:29;3.65;;;0.90;;
64208;SDS011;50527;52.414;13.226;2023-07-22T03:00:54;1.80;;;1.05;;
64208;SDS011;50527;52.414;13.226;2023-07-22T03:03:20;1.63;;;0.95;;
64208;SDS011;50527;52.414;13.226;2023-07-22T03:05:46;1.45;;;0.80;;
64208;SDS011;50527;52.414;13.226;2023-07-22T03:08:12;4.22;;;0.85;;
64208;SDS011;50527;52.414;13.226;2023-07-22T03:10:38;1.67;;;1.00;;
64208;SDS011;50527;52.414;13.226;2023-07-22T03:13:03;3.47;;;0.80;;
64208;SDS011;50527;52.414;13.226;2023-07-22T03:15:29;3.60;;;0.82;;
64208;SDS011;50527;52.414;13.226;2023-07-22T03:17:55;2.45;;;0.90;;
64208;SDS011;50527;52.414;13.226;2023-07-22T03:20:24;2.17;;;0.85;;
64208;SDS011;50527;52.414;13.226;2023-07-22T03:22:50;1.65;;;0.95;;
64208;SDS011;50527;52.414;13.226;2023-07-22T03:25:16;1.60;;;0.80;;
64208;SDS011;50527;52.414;13.226;2023-07-22T03:27:42;1.40;;;0.80;;
64208;SDS011;50527;52.414;13.226;2023-07-22T03:30:08;4.85;;;0.98;;
64208;SDS011;50527;52.414;13.226;2023-07-22T03:32:39;1.52;;;0.80;;
64208;SDS011;50527;52.414;13.226;2023-07-22T03:35:06;1.08;;;0.70;;
64208;SDS011;50527;52.414;13.226;2023-07-22T03:37:33;1.50;;;0.70;;
64208;SDS011;50527;52.414;13.226;2023-07-22T03:40:01;1.98;;;0.77;;
64208;SDS011;50527;52.414;13.226;2023-07-22T03:42:27;2.08;;;0.82;;
64208;SDS011;50527;52.414;13.226;2023-07-22T03:44:52;0.90;;;0.68;;
64208;SDS011;50527;52.414;13.226;2023-07-22T03:47:19;2.30;;;0.80;;
64208;SDS011;50527;52.414;13.226;2023-07-22T03:49:44;1.20;;;0.63;;
64208;SDS011;50527;52.414;13.226;2023-07-22T03:52:10;1.13;;;0.55;;
64208;SDS011;50527;52.414;13.226;2023-07-22T03:54:39;1.67;;;0.77;;
64208;SDS011;50527;52.414;13.226;2023-07-22T03:57:04;1.27;;;0.77;;
64208;SDS011;50527;52.414;13.226;2023-07-22T03:59:31;1.02;;;0.70;;
64208;SDS011;50527;52.414;13.226;2023-07-22T04:01:56;1.08;;;0.68;;
64208;SDS011;50527;52.414;13.226;2023-07-22T04:04:22;1.30;;;0.70;;
64208;SDS011;50527;52.414;13.226;2023-07-22T04:06:47;1.27;;;0.57;;
64208;SDS011;50527;52.414;13.226;2023-07-22T04:09:13;2.08;;;0.52;;
64208;SDS011;50527;52.414;13.226;2023-07-22T04:11:38;2.53;;;0.80;;
64208;SDS011;50527;52.414;13.226;2023-07-22T04:14:04;2.15;;;0.90;;
64208;SDS011;50527;52.414;13.226;2023-07-22T04:16:29;2.08;;;0.70;;
64208;SDS011;50527;52.414;13.226;2023-07-22T04:18:55;3.33;;;1.10;;
64208;SDS011;50527;52.414;13.226;2023-07-22T04:21:20;1.88;;;0.90;;
64208;SDS011;50527;52.414;13.226;2023-07-22T04:23:46;2.50;;;0.82;;
64208;SDS011;50527;52.414;13.226;2023-07-22T04:26:11;3.78;;;0.95;;
64208;SDS011;50527;52.414;13.226;2023-07-22T04:28:36;1.52;;;0.77;;
64208;SDS011;50527;52.414;13.226;2023-07-22T04:31:02;2.30;;;0.90;;
64208;SDS011;50527;52.414;13.226;2023-07-22T04:33:29;1.88;;;0.90;;
64208;SDS011;50527;52.414;13.226;2023-07-22T04:39:16;1.83;;;0.82;;
64208;SDS011;50527;52.414;13.226;2023-07-22T04:41:52;6.53;;;1.38;;
64208;SDS011;50527;52.414;13.226;2023-07-22T04:44:18;2.10;;;1.00;;
64208;SDS011;50527;52.414;13.226;2023-07-22T04:46:44;44.92;;;22.67;;
64208;SDS011;50527;52.414;13.226;2023-07-22T04:49:09;4.50;;;1.05;;
64208;SDS011;50527;52.414;13.226;2023-07-22T04:54:57;4.45;;;1.48;;
64208;SDS011;50527;52.414;13.226;2023-07-22T04:57:22;3.28;;;1.42;;
64208;SDS011;50527;52.414;13.226;2023-07-22T04:59:48;3.63;;;1.58;;
64208;SDS011;50527;52.414;13.226;2023-07-22T05:02:13;2.90;;;1.25;;
64208;SDS011;50527;52.414;13.226;2023-07-22T05:08:01;5.70;;;1.35;;
64208;SDS011;50527;52.414;13.226;2023-07-22T05:10:27;2.97;;;1.50;;
64208;SDS011;50527;52.414;13.226;2023-07-22T05:12:53;3.13;;;1.35;;
64208;SDS011;50527;52.414;13.226;2023-07-22T05:15:19;3.67;;;1.50;;
64208;SDS011;50527;52.414;13.226;2023-07-22T05:17:45;3.33;;;1.60;;
64208;SDS011;50527;52.414;13.226;2023-07-22T05:20:11;3.47;;;1.27;;
64208;SDS011;50527;52.414;13.226;2023-07-22T05:22:38;3.72;;;1.45;;
64208;SDS011;50527;52.414;13.226;2023-07-22T05:28:26;3.42;;;1.55;;
64208;SDS011;50527;52.414;13.226;2023-07-22T05:30:51;6.35;;;1.83;;
64208;SDS011;50527;52.414;13.226;2023-07-22T05:33:17;6.22;;;1.88;;
64208;SDS011;50527;52.414;13.226;2023-07-22T05:35:42;4.57;;;1.55;;
64208;SDS011;50527;52.414;13.226;2023-07-22T05:38:07;8.02;;;1.55;;
64208;SDS011;50527;52.414;13.226;2023-07-22T05:40:33;8.73;;;2.47;;
64208;SDS011;50527;52.414;13.226;2023-07-22T05:42:58;4.47;;;1.75;;
64208;SDS011;50527;52.414;13.226;2023-07-22T05:52:01;4.05;;;2.00;;
64208;SDS011;50527;52.414;13.226;2023-07-22T05:54:27;7.03;;;2.40;;
64208;SDS011;50527;52.414;13.226;2023-07-22T05:56:53;9.85;;;2.30;;
64208;SDS011;50527;52.414;13.226;2023-07-22T05:59:19;4.32;;;2.00;;
64208;SDS011;50527;52.414;13.226;2023-07-22T06:01:44;5.50;;;1.80;;
64208;SDS011;50527;52.414;13.226;2023-07-22T06:04:10;4.75;;;1.70;;
64208;SDS011;50527;52.414;13.226;2023-07-22T06:19:36;4.25;;;1.60;;
64208;SDS011;50527;52.414;13.226;2023-07-22T06:28:46;3.55;;;1.52;;
64208;SDS011;50527;52.414;13.226;2023-07-22T06:31:11;3.90;;;1.08;;
64208;SDS011;50527;52.414;13.226;2023-07-22T06:33:37;7.72;;;1.40;;
64208;SDS011;50527;52.414;13.226;2023-07-22T06:36:02;5.38;;;1.42;;
64208;SDS011;50527;52.414;13.226;2023-07-22T06:38:28;4.60;;;1.60;;
64208;SDS011;50527;52.414;13.226;2023-07-22T06:40:53;3.72;;;1.48;;
64208;SDS011;50527;52.414;13.226;2023-07-22T06:43:19;7.00;;;5.82;;
64208;SDS011;50527;52.414;13.226;2023-07-22T06:45:44;16.15;;;14.70;;
64208;SDS011;50527;52.414;13.226;2023-07-22T06:48:10;46.17;;;33.55;;
64208;SDS011;50527;52.414;13.226;2023-07-22T06:50:35;107.43;;;68.05;;
64208;SDS011;50527;52.414;13.226;2023-07-22T06:53:01;218.38;;;125.88;;
64208;SDS011;50527;52.414;13.226;2023-07-22T06:55:26;358.90;;;224.85;;
64208;SDS011;50527;52.414;13.226;2023-07-22T06:57:52;500.40;;;380.67;;
64208;SDS011;50527;52.414;13.226;2023-07-22T07:05:11;482.95;;;357.35;;
